sensor_id;sensor_type;location;lat;lon;timestamp;noise_LAeq;noise_LA_min;noise_LA_max;noise_LA01;noise_LA95
37279;Laerm;7458;49.002;8.472;2022-09-14T00:01:19;43.12;39.21;45.94;;
37279;Laerm;7458;49.002;8.472;2022-09-14T00:03:50;43.06;40.03;45.39;;
37279;Laerm;7458;49.002;8.472;2022-09-14T00:06:16;54.99;38.81;75.13;;
37279;Laerm;7458;49.002;8.472;2022-09-14T00:08:42;53.31;38.52;75.53;;
37279;Laerm;7458;49.002;8.472;2022-09-14T00:11:13;42.67;39.21;45.20;;
37279;Laerm;7458;49.002;8.472;2022-09-14T00:13:43;42.73;39.08;44.62;;
37279;Laerm;7458;49.002;8.472;2022-09-14T00:16:19;42.61;37.12;44.76;;
37279;Laerm;7458;49.002;8.472;2022-09-14T00:18:51;42.19;38.37;47.14;;
37279;Laerm;7458;49.002;8.472;2022-09-14T00:21:17;42.76;39.46;45.30;;
37279;Laerm;7458;49.002;8.472;2022-09-14T00:23:43;43.75;41.38;45.77;;
37279;Laerm;7458;49.002;8.472;2022-09-14T00:26:15;42.30;38.52;44.43;;
37279;Laerm;7458;49.002;8.472;2022-09-14T00:28:49;42.15;38.52;44.69;;
37279;Laerm;7458;49.002;8.472;2022-09-14T00:31:16;42.67;38.67;56.99;;
37279;Laerm;7458;49.002;8.472;2022-09-14T00:33:44;42.38;38.81;46.20;;
37279;Laerm;7458;49.002;8.472;2022-09-14T00:36:24;41.99;37.52;44.54;;
37279;Laerm;7458;49.002;8.472;2022-09-14T00:38:51;41.75;37.70;43.99;;
37279;Laerm;7458;49.002;8.472;2022-09-14T00:41:24;41.99;38.37;44.73;;
37279;Laerm;7458;49.002;8.472;2022-09-14T00:46:25;40.85;37.12;43.86;;
37279;Laerm;7458;49.002;8.472;2022-09-14T00:48:55;40.63;36.98;47.24;;
37279;Laerm;7458;49.002;8.472;2022-09-14T00:51:22;40.86;36.91;43.99;;
37279;Laerm;7458;49.002;8.472;2022-09-14T00:53:49;41.53;37.52;48.71;;
37279;Laerm;7458;49.002;8.472;2022-09-14T00:56:15;41.85;38.37;44.87;;
37279;Laerm;7458;49.002;8.472;2022-09-14T00:58:45;42.36;39.08;46.89;;
37279;Laerm;7458;49.002;8.472;2022-09-14T01:01:12;42.49;39.58;47.10;;
37279;Laerm;7458;49.002;8.472;2022-09-14T01:03:38;42.79;39.34;49.58;;
37279;Laerm;7458;49.002;8.472;2022-09-14T01:15:24;43.40;39.81;53.07;;
37279;Laerm;7458;49.002;8.472;2022-09-14T01:18:00;43.95;40.33;71.49;;
37279;Laerm;7458;49.002;8.472;2022-09-14T01:21:00;43.49;40.53;50.92;;
37279;Laerm;7458;49.002;8.472;2022-09-14T01:24:00;43.31;40.33;55.23;;
37279;Laerm;7458;49.002;8.472;2022-09-14T01:29:41;63.13;52.74;90.99;;
37279;Laerm;7458;49.002;8.472;2022-09-14T01:32:41;51.33;44.35;74.00;;
37279;Laerm;7458;49.002;8.472;2022-09-14T01:38:17;54.62;48.08;84.48;;
37279;Laerm;7458;49.002;8.472;2022-09-14T01:40:50;58.10;52.49;80.92;;
37279;Laerm;7458;49.002;8.472;2022-09-14T01:43:32;63.94;56.36;91.44;;
37279;Laerm;7458;49.002;8.472;2022-09-14T01:46:11;58.52;53.98;74.92;;
37279;Laerm;7458;49.002;8.472;2022-09-14T01:51:28;55.56;45.86;83.39;;
37279;Laerm;7458;49.002;8.472;2022-09-14T01:54:06;52.21;45.01;73.05;;
37279;Laerm;7458;49.002;8.472;2022-09-14T01:56:45;54.57;46.71;86.12;;
37279;Laerm;7458;49.002;8.472;2022-09-14T01:59:26;54.58;47.38;84.56;;
37279;Laerm;7458;49.002;8.472;2022-09-14T02:02:19;53.56;47.40;81.22;;
37279;Laerm;7458;49.002;8.472;2022-09-14T02:04:57;53.35;48.39;76.04;;
37279;Laerm;7458;49.002;8.472;2022-09-14T02:07:26;55.31;48.07;84.64;;
37279;Laerm;7458;49.002;8.472;2022-09-14T02:09:54;52.98;48.00;75.59;;
37279;Laerm;7458;49.002;8.472;2022-09-14T02:12:21;55.18;48.23;80.20;;
37279;Laerm;7458;49.002;8.472;2022-09-14T02:14:51;54.49;47.22;84.38;;
37279;Laerm;7458;49.002;8.472;2022-09-14T02:17:18;53.35;47.00;78.90;;
37279;Laerm;7458;49.002;8.472;2022-09-14T02:20:00;55.39;47.54;83.05;;
37279;Laerm;7458;49.002;8.472;2022-09-14T02:22:28;56.84;46.73;85.13;;
37279;Laerm;7458;49.002;8.472;2022-09-14T02:24:55;59.10;46.50;93.60;;
37279;Laerm;7458;49.002;8.472;2022-09-14T02:27:21;52.07;46.76;75.32;;
37279;Laerm;7458;49.002;8.472;2022-09-14T02:29:48;55.42;49.69;81.47;;
37279;Laerm;7458;49.002;8.472;2022-09-14T02:35:39;52.19;46.52;77.30;;
37279;Laerm;7458;49.002;8.472;2022-09-14T02:39:10;50.53;45.54;78.66;;
37279;Laerm;7458;49.002;8.472;2022-09-14T02:42:11;47.92;42.41;77.73;;
37279;Laerm;7458;49.002;8.472;2022-09-14T02:45:25;46.63;42.09;72.64;;
37279;Laerm;7458;49.002;8.472;2022-09-14T02:50:56;43.97;39.81;71.52;;
37279;Laerm;7458;49.002;8.472;2022-09-14T02:53:42;55.77;39.92;76.03;;
37279;Laerm;7458;49.002;8.472;2022-09-14T02:56:11;44.40;38.95;69.82;;
37279;Laerm;7458;49.002;8.472;2022-09-14T02:58:41;42.03;38.37;63.77;;
37279;Laerm;7458;49.002;8.472;2022-09-14T03:01:10;43.03;38.67;61.91;;
37279;Laerm;7458;49.002;8.472;2022-09-14T03:03:37;42.50;38.37;65.48;;
37279;Laerm;7458;49.002;8.472;2022-09-14T03:06:04;47.94;38.67;62.03;;
37279;Laerm;7458;49.002;8.472;2022-09-14T03:08:30;42.86;38.05;61.40;;
37279;Laerm;7458;49.002;8.472;2022-09-14T03:10:56;43.36;38.05;54.73;;
37279;Laerm;7458;49.002;8.472;2022-09-14T03:13:22;42.94;38.37;60.71;;
37279;Laerm;7458;49.002;8.472;2022-09-14T03:15:48;42.35;38.37;64.95;;
37279;Laerm;7458;49.002;8.472;2022-09-14T03:18:14;46.20;40.23;70.07;;
37279;Laerm;7458;49.002;8.472;2022-09-14T03:20:40;48.69;40.89;72.97;;
37279;Laerm;7458;49.002;8.472;2022-09-14T03:23:06;44.87;40.23;67.37;;
37279;Laerm;7458;49.002;8.472;2022-09-14T03:25:40;43.74;39.58;63.80;;
37279;Laerm;7458;49.002;8.472;2022-09-14T03:28:07;42.26;38.52;59.30;;
37279;Laerm;7458;49.002;8.472;2022-09-14T03:30:33;43.58;38.81;63.69;;
37279;Laerm;7458;49.002;8.472;2022-09-14T03:33:00;47.88;38.21;65.72;;
37279;Laerm;7458;49.002;8.472;2022-09-14T03:35:28;42.48;37.88;56.45;;
37279;Laerm;7458;49.002;8.472;2022-09-14T03:37:57;42.86;39.21;63.96;;
37279;Laerm;7458;49.002;8.472;2022-09-14T03:40:24;43.33;38.95;53.49;;
37279;Laerm;7458;49.002;8.472;2022-09-14T03:42:50;42.02;38.37;52.89;;
37279;Laerm;7458;49.002;8.472;2022-09-14T03:45:18;43.48;39.08;54.95;;
37279;Laerm;7458;49.002;8.472;2022-09-14T03:47:44;43.16;39.81;51.69;;
37279;Laerm;7458;49.002;8.472;2022-09-14T03:50:13;46.96;41.14;63.86;;
37279;Laerm;7458;49.002;8.472;2022-09-14T03:52:39;46.80;43.29;54.11;;
37279;Laerm;7458;49.002;8.472;2022-09-14T03:55:07;50.14;44.19;77.53;;
37279;Laerm;7458;49.002;8.472;2022-09-14T03:57:34;53.06;43.77;74.18;;
37279;Laerm;7458;49.002;8.472;2022-09-14T04:00:00;56.32;49.45;80.32;;
37279;Laerm;7458;49.002;8.472;2022-09-14T04:02:28;65.93;53.97;88.49;;
37279;Laerm;7458;49.002;8.472;2022-09-14T04:04:54;64.46;58.10;84.40;;
37279;Laerm;7458;49.002;8.472;2022-09-14T04:07:20;63.67;56.78;84.27;;
37279;Laerm;7458;49.002;8.472;2022-09-14T04:09:46;63.29;51.44;83.82;;
37279;Laerm;7458;49.002;8.472;2022-09-14T04:12:11;57.11;51.44;75.09;;
37279;Laerm;7458;49.002;8.472;2022-09-14T04:14:37;61.70;44.73;81.05;;
37279;Laerm;7458;49.002;8.472;2022-09-14T04:17:03;47.40;43.09;64.45;;
37279;Laerm;7458;49.002;8.472;2022-09-14T04:19:29;46.14;42.22;54.92;;
37279;Laerm;7458;49.002;8.472;2022-09-14T04:21:55;46.17;41.68;62.34;;
37279;Laerm;7458;49.002;8.472;2022-09-14T04:24:21;55.80;40.23;77.33;;
37279;Laerm;7458;49.002;8.472;2022-09-14T04:26:47;54.12;39.70;67.22;;
37279;Laerm;7458;49.002;8.472;2022-09-14T04:29:13;43.98;39.81;52.73;;
37279;Laerm;7458;49.002;8.472;2022-09-14T04:31:39;44.48;39.58;54.63;;
37279;Laerm;7458;49.002;8.472;2022-09-14T04:34:05;50.75;41.30;65.74;;
37279;Laerm;7458;49.002;8.472;2022-09-14T04:36:31;52.50;40.98;72.95;;
37279;Laerm;7458;49.002;8.472;2022-09-14T04:39:00;51.90;41.38;70.64;;
37279;Laerm;7458;49.002;8.472;2022-09-14T04:41:28;52.30;40.33;67.89;;
37279;Laerm;7458;49.002;8.472;2022-09-14T04:43:55;52.94;41.14;75.92;;
37279;Laerm;7458;49.002;8.472;2022-09-14T04:46:30;53.88;40.62;70.15;;
37279;Laerm;7458;49.002;8.472;2022-09-14T04:48:57;55.56;39.81;77.78;;
37279;Laerm;7458;49.002;8.472;2022-09-14T04:51:29;49.08;40.43;66.28;;
37279;Laerm;7458;49.002;8.472;2022-09-14T04:53:56;49.79;42.53;59.25;;
37279;Laerm;7458;49.002;8.472;2022-09-14T04:56:24;52.11;39.34;70.65;;
37279;Laerm;7458;49.002;8.472;2022-09-14T04:58:53;50.54;40.33;68.90;;
37279;Laerm;7458;49.002;8.472;2022-09-14T05:01:23;46.46;40.23;56.87;;
37279;Laerm;7458;49.002;8.472;2022-09-14T05:03:50;51.89;38.95;66.98;;
37279;Laerm;7458;49.002;8.472;2022-09-14T05:06:20;54.97;40.71;72.23;;
37279;Laerm;7458;49.002;8.472;2022-09-14T05:08:47;60.16;42.24;78.83;;
37279;Laerm;7458;49.002;8.472;2022-09-14T05:11:17;47.06;40.89;56.45;;
37279;Laerm;7458;49.002;8.472;2022-09-14T05:13:43;57.86;41.82;75.77;;
37279;Laerm;7458;49.002;8.472;2022-09-14T05:16:28;50.53;40.71;68.46;;
37279;Laerm;7458;49.002;8.472;2022-09-14T05:18:57;52.30;42.41;75.90;;
37279;Laerm;7458;49.002;8.472;2022-09-14T05:21:25;53.85;40.98;69.86;;
37279;Laerm;7458;49.002;8.472;2022-09-14T05:24:00;49.29;40.62;66.09;;
37279;Laerm;7458;49.002;8.472;2022-09-14T05:26:29;53.97;40.53;73.29;;
37279;Laerm;7458;49.002;8.472;2022-09-14T05:28:58;52.22;41.46;68.96;;
37279;Laerm;7458;49.002;8.472;2022-09-14T05:31:26;51.49;41.38;66.73;;
37279;Laerm;7458;49.002;8.472;2022-09-14T05:33:53;54.60;45.60;69.88;;
37279;Laerm;7458;49.002;8.472;2022-09-14T05:36:20;58.18;45.11;75.30;;
37279;Laerm;7458;49.002;8.472;2022-09-14T05:38:46;60.13;45.45;76.07;;
37279;Laerm;7458;49.002;8.472;2022-09-14T05:41:14;71.42;47.11;104.11;;
37279;Laerm;7458;49.002;8.472;2022-09-14T05:43:40;57.83;43.77;73.36;;
37279;Laerm;7458;49.002;8.472;2022-09-14T05:46:11;52.20;42.03;71.05;;
37279;Laerm;7458;49.002;8.472;2022-09-14T05:48:39;56.84;42.41;72.43;;
37279;Laerm;7458;49.002;8.472;2022-09-14T05:51:09;57.76;43.09;71.51;;
37279;Laerm;7458;49.002;8.472;2022-09-14T05:53:35;55.14;43.09;69.42;;
37279;Laerm;7458;49.002;8.472;2022-09-14T05:58:34;52.18;42.16;68.76;;
37279;Laerm;7458;49.002;8.472;2022-09-14T06:01:22;54.78;42.93;73.17;;
37279;Laerm;7458;49.002;8.472;2022-09-14T06:03:49;55.14;43.49;74.02;;
37279;Laerm;7458;49.002;8.472;2022-09-14T06:06:18;49.47;42.59;68.64;;
37279;Laerm;7458;49.002;8.472;2022-09-14T06:08:45;54.05;42.09;71.70;;
37279;Laerm;7458;49.002;8.472;2022-09-14T06:11:15;53.54;42.53;69.14;;
37279;Laerm;7458;49.002;8.472;2022-09-14T06:13:42;55.37;42.29;71.85;;
37279;Laerm;7458;49.002;8.472;2022-09-14T06:16:14;55.45;43.04;72.12;;
37279;Laerm;7458;49.002;8.472;2022-09-14T06:18:42;54.41;43.09;69.11;;
37279;Laerm;7458;49.002;8.472;2022-09-14T06:21:11;60.59;43.49;79.52;;
37279;Laerm;7458;49.002;8.472;2022-09-14T06:23:40;51.78;42.47;68.05;;
37279;Laerm;7458;49.002;8.472;2022-09-14T06:26:06;57.78;43.68;75.59;;
37279;Laerm;7458;49.002;8.472;2022-09-14T06:28:33;51.98;43.14;70.06;;
37279;Laerm;7458;49.002;8.472;2022-09-14T06:31:00;54.71;42.76;70.66;;
37279;Laerm;7458;49.002;8.472;2022-09-14T06:33:27;53.24;42.71;70.44;;
37279;Laerm;7458;49.002;8.472;2022-09-14T06:36:05;51.79;43.90;67.26;;
37279;Laerm;7458;49.002;8.472;2022-09-14T06:38:37;54.35;43.29;67.58;;
37279;Laerm;7458;49.002;8.472;2022-09-14T06:41:06;52.27;42.88;67.82;;
37279;Laerm;7458;49.002;8.472;2022-09-14T06:43:36;50.51;42.88;64.75;;
37279;Laerm;7458;49.002;8.472;2022-09-14T06:46:24;55.07;42.35;73.08;;
37279;Laerm;7458;49.002;8.472;2022-09-14T06:48:59;52.90;42.41;71.27;;
37279;Laerm;7458;49.002;8.472;2022-09-14T06:51:31;55.04;43.04;71.97;;
37279;Laerm;7458;49.002;8.472;2022-09-14T06:53:59;52.78;42.98;68.90;;
37279;Laerm;7458;49.002;8.472;2022-09-14T06:56:27;54.07;41.75;70.12;;
37279;Laerm;7458;49.002;8.472;2022-09-14T06:58:53;56.96;43.09;69.86;;
37279;Laerm;7458;49.002;8.472;2022-09-14T07:01:20;64.41;42.53;84.86;;
37279;Laerm;7458;49.002;8.472;2022-09-14T07:03:47;51.10;42.22;66.17;;
37279;Laerm;7458;49.002;8.472;2022-09-14T07:06:21;57.72;42.65;77.63;;
37279;Laerm;7458;49.002;8.472;2022-09-14T07:08:49;57.17;42.88;80.43;;
37279;Laerm;7458;49.002;8.472;2022-09-14T07:11:21;53.85;42.06;78.05;;
37279;Laerm;7458;49.002;8.472;2022-09-14T07:13:48;52.27;42.88;67.89;;
37279;Laerm;7458;49.002;8.472;2022-09-14T07:16:14;49.09;42.65;69.73;;
37279;Laerm;7458;49.002;8.472;2022-09-14T07:18:40;52.69;43.49;67.97;;
37279;Laerm;7458;49.002;8.472;2022-09-14T07:21:16;47.74;42.16;61.04;;
37279;Laerm;7458;49.002;8.472;2022-09-14T07:23:43;46.77;41.82;58.89;;
37279;Laerm;7458;49.002;8.472;2022-09-14T07:26:19;48.02;42.29;60.28;;
37279;Laerm;7458;49.002;8.472;2022-09-14T07:28:49;49.24;43.44;58.51;;
37279;Laerm;7458;49.002;8.472;2022-09-14T07:31:25;56.98;42.59;74.12;;
37279;Laerm;7458;49.002;8.472;2022-09-14T07:33:55;49.56;41.89;63.36;;
37279;Laerm;7458;49.002;8.472;2022-09-14T07:36:23;53.17;43.14;65.33;;
37279;Laerm;7458;49.002;8.472;2022-09-14T07:38:50;53.20;42.47;68.92;;
37279;Laerm;7458;49.002;8.472;2022-09-14T07:41:16;53.02;42.59;72.10;;
37279;Laerm;7458;49.002;8.472;2022-09-14T07:43:43;53.20;42.58;71.12;;
37279;Laerm;7458;49.002;8.472;2022-09-14T07:46:08;51.05;42.65;67.19;;
37279;Laerm;7458;49.002;8.472;2022-09-14T07:48:35;59.60;43.14;81.32;;
37279;Laerm;7458;49.002;8.472;2022-09-14T07:51:05;52.56;42.88;66.15;;
37279;Laerm;7458;49.002;8.472;2022-09-14T07:53:34;51.13;43.68;65.28;;
37279;Laerm;7458;49.002;8.472;2022-09-14T07:56:01;51.48;42.82;67.18;;
37279;Laerm;7458;49.002;8.472;2022-09-14T07:58:28;45.75;43.04;53.67;;
37279;Laerm;7458;49.002;8.472;2022-09-14T08:01:02;53.16;43.34;68.92;;
37279;Laerm;7458;49.002;8.472;2022-09-14T08:03:29;50.54;42.82;67.64;;
37279;Laerm;7458;49.002;8.472;2022-09-14T08:06:01;53.35;42.93;69.74;;
37279;Laerm;7458;49.002;8.472;2022-09-14T08:08:30;53.51;43.68;68.53;;
37279;Laerm;7458;49.002;8.472;2022-09-14T08:11:04;57.23;43.90;74.99;;
37279;Laerm;7458;49.002;8.472;2022-09-14T08:13:33;49.14;43.63;64.72;;
37279;Laerm;7458;49.002;8.472;2022-09-14T08:15:59;52.38;43.44;71.15;;
37279;Laerm;7458;49.002;8.472;2022-09-14T08:18:28;48.95;43.24;61.35;;
37279;Laerm;7458;49.002;8.472;2022-09-14T08:20:55;49.80;42.88;64.06;;
37279;Laerm;7458;49.002;8.472;2022-09-14T08:23:21;53.72;43.90;74.89;;
37279;Laerm;7458;49.002;8.472;2022-09-14T08:25:48;60.18;43.63;89.03;;
37279;Laerm;7458;49.002;8.472;2022-09-14T08:28:14;52.83;45.17;75.19;;
37279;Laerm;7458;49.002;8.472;2022-09-14T08:30:40;46.42;42.65;60.57;;
37279;Laerm;7458;49.002;8.472;2022-09-14T08:33:06;51.72;42.71;75.86;;
37279;Laerm;7458;49.002;8.472;2022-09-14T08:35:32;53.43;43.14;73.64;;
37279;Laerm;7458;49.002;8.472;2022-09-14T08:37:57;54.07;43.14;81.64;;
37279;Laerm;7458;49.002;8.472;2022-09-14T08:40:23;53.17;43.09;70.43;;
37279;Laerm;7458;49.002;8.472;2022-09-14T08:42:51;48.91;43.09;61.42;;
37279;Laerm;7458;49.002;8.472;2022-09-14T08:45:18;52.31;42.41;70.44;;
37279;Laerm;7458;49.002;8.472;2022-09-14T08:47:44;52.13;42.82;75.54;;
37279;Laerm;7458;49.002;8.472;2022-09-14T08:50:13;50.30;43.49;66.12;;
37279;Laerm;7458;49.002;8.472;2022-09-14T08:52:46;55.28;42.76;76.06;;
37279;Laerm;7458;49.002;8.472;2022-09-14T08:55:36;48.93;42.71;66.29;;
37279;Laerm;7458;49.002;8.472;2022-09-14T09:01:29;57.00;42.22;71.70;;
37279;Laerm;7458;49.002;8.472;2022-09-14T09:07:04;45.51;42.35;55.81;;
37279;Laerm;7458;49.002;8.472;2022-09-14T09:09:45;51.58;42.53;68.24;;
37279;Laerm;7458;49.002;8.472;2022-09-14T09:12:19;54.89;44.11;70.03;;
37279;Laerm;7458;49.002;8.472;2022-09-14T09:14:58;57.67;42.98;77.45;;
37279;Laerm;7458;49.002;8.472;2022-09-14T09:17:38;65.88;42.71;91.47;;
37279;Laerm;7458;49.002;8.472;2022-09-14T09:20:12;53.72;45.36;68.13;;
37279;Laerm;7458;49.002;8.472;2022-09-14T09:23:18;52.38;43.77;67.49;;
37279;Laerm;7458;49.002;8.472;2022-09-14T09:26:01;50.71;43.09;66.15;;
37279;Laerm;7458;49.002;8.472;2022-09-14T09:28:30;51.22;43.49;74.71;;
37279;Laerm;7458;49.002;8.472;2022-09-14T09:31:06;49.73;42.35;72.62;;
37279;Laerm;7458;49.002;8.472;2022-09-14T09:33:34;52.85;42.03;67.23;;
37279;Laerm;7458;49.002;8.472;2022-09-14T09:36:00;49.92;42.41;72.25;;
37279;Laerm;7458;49.002;8.472;2022-09-14T09:38:28;59.14;42.98;78.62;;
37279;Laerm;7458;49.002;8.472;2022-09-14T09:41:19;52.47;41.38;67.55;;
37279;Laerm;7458;49.002;8.472;2022-09-14T09:44:05;54.00;42.53;70.03;;
37279;Laerm;7458;49.002;8.472;2022-09-14T09:46:58;52.13;42.65;71.62;;
37279;Laerm;7458;49.002;8.472;2022-09-14T09:49:36;51.78;42.65;80.17;;
37279;Laerm;7458;49.002;8.472;2022-09-14T09:52:16;55.66;42.93;68.62;;
37279;Laerm;7458;49.002;8.472;2022-09-14T09:54:50;50.23;42.41;67.81;;
37279;Laerm;7458;49.002;8.472;2022-09-14T09:57:29;54.49;44.31;73.52;;
37279;Laerm;7458;49.002;8.472;2022-09-14T10:00:28;57.55;43.14;77.10;;
37279;Laerm;7458;49.002;8.472;2022-09-14T10:02:56;52.86;43.77;67.54;;
37279;Laerm;7458;49.002;8.472;2022-09-14T10:05:27;54.02;42.88;67.59;;
37279;Laerm;7458;49.002;8.472;2022-09-14T10:08:02;47.34;41.68;61.58;;
37279;Laerm;7458;49.002;8.472;2022-09-14T10:13:05;50.77;42.88;69.80;;
37279;Laerm;7458;49.002;8.472;2022-09-14T10:15:35;55.75;42.16;76.59;;
37279;Laerm;7458;49.002;8.472;2022-09-14T10:21:04;53.12;42.09;79.72;;
37279;Laerm;7458;49.002;8.472;2022-09-14T10:23:37;53.54;42.98;72.01;;
37279;Laerm;7458;49.002;8.472;2022-09-14T10:28:49;53.50;43.09;69.51;;
37279;Laerm;7458;49.002;8.472;2022-09-14T10:33:44;51.98;41.53;72.27;;
37279;Laerm;7458;49.002;8.472;2022-09-14T10:42:13;63.91;43.09;80.32;;
37279;Laerm;7458;49.002;8.472;2022-09-14T10:45:09;50.76;42.03;68.08;;
37279;Laerm;7458;49.002;8.472;2022-09-14T10:53:48;51.32;43.29;64.62;;
37279;Laerm;7458;49.002;8.472;2022-09-14T10:56:34;48.75;42.59;66.55;;
37279;Laerm;7458;49.002;8.472;2022-09-14T11:05:18;55.49;42.88;76.90;;
37279;Laerm;7458;49.002;8.472;2022-09-14T11:22:17;55.88;43.34;77.95;;
37279;Laerm;7458;49.002;8.472;2022-09-14T11:24:52;51.10;42.53;65.96;;
37279;Laerm;7458;49.002;8.472;2022-09-14T11:28:03;53.80;42.35;71.91;;
37279;Laerm;7458;49.002;8.472;2022-09-14T11:31:01;52.25;43.19;68.35;;
37279;Laerm;7458;49.002;8.472;2022-09-14T11:33:38;49.99;42.82;63.66;;
37279;Laerm;7458;49.002;8.472;2022-09-14T11:36:31;62.21;43.63;82.45;;
37279;Laerm;7458;49.002;8.472;2022-09-14T11:39:11;52.23;42.59;69.61;;
37279;Laerm;7458;49.002;8.472;2022-09-14T11:41:53;49.99;44.27;67.63;;
37279;Laerm;7458;49.002;8.472;2022-09-14T11:44:37;51.42;42.42;69.32;;
37279;Laerm;7458;49.002;8.472;2022-09-14T11:47:16;51.75;43.58;68.81;;
37279;Laerm;7458;49.002;8.472;2022-09-14T11:50:18;53.16;43.14;69.27;;
37279;Laerm;7458;49.002;8.472;2022-09-14T11:52:58;51.75;42.47;68.99;;
37279;Laerm;7458;49.002;8.472;2022-09-14T11:55:26;46.66;41.82;62.50;;
37279;Laerm;7458;49.002;8.472;2022-09-14T11:57:52;53.56;42.88;73.70;;
37279;Laerm;7458;49.002;8.472;2022-09-14T12:03:11;51.26;42.59;75.05;;
37279;Laerm;7458;49.002;8.472;2022-09-14T12:05:37;56.53;42.22;73.83;;
37279;Laerm;7458;49.002;8.472;2022-09-14T12:13:35;54.77;43.14;77.73;;
37279;Laerm;7458;49.002;8.472;2022-09-14T12:16:07;50.50;43.14;69.48;;
37279;Laerm;7458;49.002;8.472;2022-09-14T12:18:38;51.81;42.74;67.39;;
37279;Laerm;7458;49.002;8.472;2022-09-14T12:21:18;53.79;42.47;75.38;;
37279;Laerm;7458;49.002;8.472;2022-09-14T12:23:51;53.86;42.76;72.06;;
37279;Laerm;7458;49.002;8.472;2022-09-14T12:26:33;65.73;43.72;86.33;;
37279;Laerm;7458;49.002;8.472;2022-09-14T12:29:30;56.67;44.11;73.44;;
37279;Laerm;7458;49.002;8.472;2022-09-14T12:32:04;53.58;44.83;67.50;;
37279;Laerm;7458;49.002;8.472;2022-09-14T12:34:32;58.13;45.36;77.26;;
37279;Laerm;7458;49.002;8.472;2022-09-14T12:37:27;62.66;48.70;85.41;;
37279;Laerm;7458;49.002;8.472;2022-09-14T12:40:22;58.67;51.85;83.89;;
37279;Laerm;7458;49.002;8.472;2022-09-14T12:42:55;67.51;53.18;94.93;;
37279;Laerm;7458;49.002;8.472;2022-09-14T12:56:43;61.09;52.98;79.07;;
37279;Laerm;7458;49.002;8.472;2022-09-14T13:02:25;61.33;52.83;78.56;;
37279;Laerm;7458;49.002;8.472;2022-09-14T13:04:59;64.61;53.62;80.19;;
37279;Laerm;7458;49.002;8.472;2022-09-14T13:07:31;62.27;51.79;77.22;;
37279;Laerm;7458;49.002;8.472;2022-09-14T13:09:59;60.70;54.40;81.72;;
37279;Laerm;7458;49.002;8.472;2022-09-14T13:12:41;58.89;48.80;76.11;;
37279;Laerm;7458;49.002;8.472;2022-09-14T13:15:24;54.90;49.11;70.86;;
37279;Laerm;7458;49.002;8.472;2022-09-14T13:18:05;59.53;51.30;76.85;;
37279;Laerm;7458;49.002;8.472;2022-09-14T13:20:52;60.75;53.33;79.21;;
37279;Laerm;7458;49.002;8.472;2022-09-14T13:23:34;59.26;52.92;78.33;;
37279;Laerm;7458;49.002;8.472;2022-09-14T13:26:15;58.69;50.35;74.77;;
37279;Laerm;7458;49.002;8.472;2022-09-14T13:28:45;60.70;47.91;77.29;;
37279;Laerm;7458;49.002;8.472;2022-09-14T13:31:17;56.52;45.60;76.14;;
37279;Laerm;7458;49.002;8.472;2022-09-14T13:33:50;58.63;45.39;74.45;;
37279;Laerm;7458;49.002;8.472;2022-09-14T13:36:22;53.52;44.54;70.32;;
37279;Laerm;7458;49.002;8.472;2022-09-14T13:38:50;56.49;44.65;74.43;;
37279;Laerm;7458;49.002;8.472;2022-09-14T13:41:18;56.41;45.07;72.42;;
37279;Laerm;7458;49.002;8.472;2022-09-14T13:43:49;50.51;45.39;75.36;;
37279;Laerm;7458;49.002;8.472;2022-09-14T13:46:17;55.91;45.72;73.68;;
37279;Laerm;7458;49.002;8.472;2022-09-14T13:48:43;52.68;45.07;69.90;;
37279;Laerm;7458;49.002;8.472;2022-09-14T13:51:12;51.42;45.27;67.60;;
37279;Laerm;7458;49.002;8.472;2022-09-14T13:53:47;53.72;44.35;69.02;;
37279;Laerm;7458;49.002;8.472;2022-09-14T13:56:34;54.33;44.11;68.82;;
37279;Laerm;7458;49.002;8.472;2022-09-14T13:59:15;57.29;45.30;71.55;;
37279;Laerm;7458;49.002;8.472;2022-09-14T14:02:00;55.59;44.90;74.27;;
37279;Laerm;7458;49.002;8.472;2022-09-14T14:04:36;55.18;46.30;71.97;;
37279;Laerm;7458;49.002;8.472;2022-09-14T14:07:20;58.32;47.34;73.04;;
37279;Laerm;7458;49.002;8.472;2022-09-14T14:09:48;54.70;45.91;67.19;;
37279;Laerm;7458;49.002;8.472;2022-09-14T14:12:34;52.32;44.94;68.10;;
37279;Laerm;7458;49.002;8.472;2022-09-14T14:15:05;57.48;45.54;73.25;;
37279;Laerm;7458;49.002;8.472;2022-09-14T14:17:51;53.55;45.77;69.83;;
37279;Laerm;7458;49.002;8.472;2022-09-14T14:20:27;53.82;46.45;67.11;;
37279;Laerm;7458;49.002;8.472;2022-09-14T14:23:01;56.50;45.23;71.94;;
37279;Laerm;7458;49.002;8.472;2022-09-14T14:25:44;60.96;44.94;82.02;;
37279;Laerm;7458;49.002;8.472;2022-09-14T14:28:36;56.75;46.05;72.30;;
37279;Laerm;7458;49.002;8.472;2022-09-14T14:31:04;57.93;46.57;75.52;;
37279;Laerm;7458;49.002;8.472;2022-09-14T14:33:34;54.91;45.63;72.89;;
37279;Laerm;7458;49.002;8.472;2022-09-14T14:36:01;56.70;45.17;74.65;;
37279;Laerm;7458;49.002;8.472;2022-09-14T14:38:34;56.00;44.94;70.48;;
37279;Laerm;7458;49.002;8.472;2022-09-14T14:40:59;55.06;45.42;72.08;;
37279;Laerm;7458;49.002;8.472;2022-09-14T14:43:26;53.79;44.69;72.75;;
37279;Laerm;7458;49.002;8.472;2022-09-14T14:45:59;55.05;44.58;70.40;;
37279;Laerm;7458;49.002;8.472;2022-09-14T14:48:27;50.95;44.23;62.34;;
37279;Laerm;7458;49.002;8.472;2022-09-14T14:50:53;58.63;43.49;78.61;;
37279;Laerm;7458;49.002;8.472;2022-09-14T14:53:22;59.08;43.72;77.39;;
37279;Laerm;7458;49.002;8.472;2022-09-14T14:55:48;58.94;43.68;77.41;;
37279;Laerm;7458;49.002;8.472;2022-09-14T14:58:19;49.74;43.14;66.32;;
37279;Laerm;7458;49.002;8.472;2022-09-14T15:00:45;49.97;43.04;69.76;;
37279;Laerm;7458;49.002;8.472;2022-09-14T15:03:13;52.44;43.34;70.93;;
37279;Laerm;7458;49.002;8.472;2022-09-14T15:05:45;57.78;42.98;74.69;;
37279;Laerm;7458;49.002;8.472;2022-09-14T15:08:13;49.23;42.30;70.81;;
37279;Laerm;7458;49.002;8.472;2022-09-14T15:10:40;55.80;44.43;67.51;;
37279;Laerm;7458;49.002;8.472;2022-09-14T15:13:09;55.99;45.66;70.90;;
37279;Laerm;7458;49.002;8.472;2022-09-14T15:15:35;54.47;45.07;69.24;;
37279;Laerm;7458;49.002;8.472;2022-09-14T15:18:01;57.70;44.80;71.44;;
37279;Laerm;7458;49.002;8.472;2022-09-14T15:20:27;54.10;44.51;66.23;;
37279;Laerm;7458;49.002;8.472;2022-09-14T15:22:53;55.77;43.94;80.45;;
37279;Laerm;7458;49.002;8.472;2022-09-14T15:25:20;55.77;44.58;68.20;;
37279;Laerm;7458;49.002;8.472;2022-09-14T15:27:46;50.77;43.68;72.83;;
37279;Laerm;7458;49.002;8.472;2022-09-14T15:30:13;50.73;43.68;71.27;;
37279;Laerm;7458;49.002;8.472;2022-09-14T15:32:39;57.73;44.07;73.92;;
37279;Laerm;7458;49.002;8.472;2022-09-14T15:35:08;55.49;44.23;71.46;;
37279;Laerm;7458;49.002;8.472;2022-09-14T15:37:35;55.34;43.09;69.26;;
37279;Laerm;7458;49.002;8.472;2022-09-14T15:40:02;50.42;43.44;71.38;;
37279;Laerm;7458;49.002;8.472;2022-09-14T15:42:27;51.76;43.80;69.30;;
37279;Laerm;7458;49.002;8.472;2022-09-14T15:44:53;59.72;44.69;76.11;;
37279;Laerm;7458;49.002;8.472;2022-09-14T15:47:19;56.00;45.63;72.79;;
37279;Laerm;7458;49.002;8.472;2022-09-14T15:49:45;55.59;44.42;68.75;;
37279;Laerm;7458;49.002;8.472;2022-09-14T15:52:11;51.12;43.58;68.60;;
37279;Laerm;7458;49.002;8.472;2022-09-14T15:54:38;48.67;43.72;57.92;;
37279;Laerm;7458;49.002;8.472;2022-09-14T15:57:07;49.99;43.94;64.08;;
37279;Laerm;7458;49.002;8.472;2022-09-14T15:59:34;54.26;44.27;70.53;;
37279;Laerm;7458;49.002;8.472;2022-09-14T16:02:00;52.86;44.43;68.16;;
37279;Laerm;7458;49.002;8.472;2022-09-14T16:04:26;58.64;44.31;79.54;;
37279;Laerm;7458;49.002;8.472;2022-09-14T16:06:52;51.94;44.65;67.09;;